Time;durP1;ratioP1;P1;durP2;ratioP2;P2;SDS_P1;SDS_P2;PMS_P1;PMS_P2;Temp;Humidity;BMP_temperature;BMP_pressure;BME280_temperature;BME280_humidity;BME280_pressure;Samples;Min_cycle;Max_cycle;Signal;HPM_P1;HPM_P2
2023/06/25 00:00:06;;;;;;;9.93;4.28;;;;;;;;;;10468760;28;20128;-75
2023/06/25 00:05:12;;;;;;;12.38;4.13;;;;;;;;;;10459131;28;20047;-74
2023/06/25 00:10:16;;;;;;;10.20;5.18;;;;;;;;;;10462671;28;20044;-75
2023/06/25 00:15:19;;;;;;;12.23;4.35;;;;;;;;;;10465337;28;20033;-74
2023/06/25 00:20:23;;;;;;;9.98;4.25;;;;;;;;;;10463644;28;20045;-74
2023/06/25 00:25:28;;;;;;;8.43;4.10;;;;;;;;;;10468019;28;20037;-74
2023/06/25 00:30:30;;;;;;;9.43;3.85;;;;;;;;;;10469057;28;20143;-75
2023/06/25 00:35:59;;;;;;;8.40;4.00;;;;;;;;;;10469381;28;20139;-74
2023/06/25 00:41:03;;;;;;;7.40;4.03;;;;;;;;;;10465771;28;20053;-73
2023/06/25 00:46:06;;;;;;;8.38;4.15;;;;;;;;;;10463325;28;20052;-74
2023/06/25 00:51:11;;;;;;;9.68;4.50;;;;;;;;;;10472062;28;20055;-74
2023/06/25 00:56:16;;;;;;;6.97;3.30;;;;;;;;;;10468768;28;20482;-75
2023/06/25 01:01:26;;;;;;;9.30;4.35;;;;;;;;;;10468551;28;20132;-74
2023/06/25 01:06:33;;;;;;;11.00;4.18;;;;;;;;;;10461564;28;20036;-74
2023/06/25 01:11:38;;;;;;;7.93;4.20;;;;;;;;;;10464093;28;20063;-74
2023/06/25 01:16:40;;;;;;;9.27;4.25;;;;;;;;;;10470667;28;20041;-74
2023/06/25 01:21:44;;;;;;;9.55;4.45;;;;;;;;;;10465407;28;20052;-74
2023/06/25 01:26:51;;;;;;;;;;;;;;;;;;10461183;28;20087;-74
2023/06/25 01:31:57;;;;;;;7.03;3.90;;;;;;;;;;10467210;28;19956;-75
2023/06/25 01:37:00;;;;;;;7.38;4.20;;;;;;;;;;10471988;28;20060;-74
2023/06/25 01:42:03;;;;;;;9.35;4.15;;;;;;;;;;10462231;28;20045;-74
2023/06/25 01:47:07;;;;;;;8.10;4.60;;;;;;;;;;10468071;28;20033;-75
2023/06/25 01:52:10;;;;;;;8.30;4.53;;;;;;;;;;10462271;28;20071;-74
2023/06/25 01:57:15;;;;;;;9.80;4.57;;;;;;;;;;10464748;28;20037;-74
2023/06/25 02:02:19;;;;;;;8.02;4.35;;;;;;;;;;10464445;28;20060;-73
2023/06/25 02:07:22;;;;;;;10.40;4.97;;;;;;;;;;10463360;28;20057;-72
2023/06/25 02:12:25;;;;;;;9.30;4.72;;;;;;;;;;10463380;28;20106;-75
2023/06/25 02:17:29;;;;;;;9.15;4.82;;;;;;;;;;10475969;28;20033;-74
2023/06/25 02:22:31;;;;;;;10.55;5.00;;;;;;;;;;10476943;28;20037;-74
2023/06/25 02:27:34;;;;;;;9.25;4.68;;;;;;;;;;10476252;28;20067;-74
2023/06/25 02:32:38;;;;;;;8.95;4.93;;;;;;;;;;10468898;28;20045;-73
2023/06/25 02:37:47;;;;;;;10.13;4.97;;;;;;;;;;10466925;28;20101;-74
2023/06/25 02:42:50;;;;;;;8.75;4.50;;;;;;;;;;10465766;28;20041;-72
2023/06/25 02:47:55;;;;;;;9.80;5.22;;;;;;;;;;10462677;28;20458;-73
2023/06/25 02:52:57;;;;;;;9.02;4.63;;;;;;;;;;10468598;28;20067;-74
2023/06/25 02:58:00;;;;;;;8.52;4.85;;;;;;;;;;10474060;28;20041;-74
2023/06/25 03:03:04;;;;;;;8.90;4.70;;;;;;;;;;10471252;28;20065;-76
2023/06/25 03:08:07;;;;;;;12.88;4.65;;;;;;;;;;10466996;28;20041;-76
2023/06/25 03:13:11;;;;;;;10.77;4.68;;;;;;;;;;10468942;28;20513;-73
2023/06/25 03:18:15;;;;;;;10.38;4.78;;;;;;;;;;10465964;28;20044;-75
2023/06/25 03:23:18;;;;;;;9.82;4.55;;;;;;;;;;10481516;28;20043;-73
2023/06/25 03:28:20;;;;;;;10.48;4.80;;;;;;;;;;10477322;28;20067;-73
2023/06/25 03:33:24;;;;;;;;;;;;;;;;;;10472779;28;20048;-74
2023/06/25 03:38:28;;;;;;;9.18;4.25;;;;;;;;;;10473726;28;20159;-73
2023/06/25 03:43:30;;;;;;;7.68;2.55;;;;;;;;;;10474818;28;20069;-74
2023/06/25 03:48:33;;;;;;;10.05;3.90;;;;;;;;;;10473085;28;20067;-73
2023/06/25 03:53:39;;;;;;;8.10;4.18;;;;;;;;;;10476299;28;20410;-74
2023/06/25 03:58:41;;;;;;;9.63;4.13;;;;;;;;;;10475534;28;20194;-74
2023/06/25 04:03:44;;;;;;;12.02;4.22;;;;;;;;;;10483420;28;20113;-74
2023/06/25 04:08:48;;;;;;;7.60;4.05;;;;;;;;;;10471853;28;20036;-74
2023/06/25 04:13:50;;;;;;;8.27;4.60;;;;;;;;;;10475066;28;20065;-74
2023/06/25 04:18:53;;;;;;;6.93;3.47;;;;;;;;;;10470214;28;20099;-73
2023/06/25 04:23:57;;;;;;;6.00;2.78;;;;;;;;;;10478650;28;20060;-74
2023/06/25 04:29:00;;;;;;;8.00;4.20;;;;;;;;;;10476859;28;20144;-74
2023/06/25 04:34:03;;;;;;;4.20;1.97;;;;;;;;;;10463447;28;20073;-74
2023/06/25 04:39:08;;;;;;;6.85;2.80;;;;;;;;;;10469777;28;20049;-74
2023/06/25 04:44:10;;;;;;;6.57;3.30;;;;;;;;;;10465452;28;20041;-73
2023/06/25 04:49:13;;;;;;;7.47;3.97;;;;;;;;;;10470343;28;20149;-74
2023/06/25 04:54:17;;;;;;;7.53;3.85;;;;;;;;;;10455545;28;20167;-72
2023/06/25 04:59:19;;;;;;;7.63;3.55;;;;;;;;;;10456197;28;20155;-74
2023/06/25 05:04:22;;;;;;;8.15;3.92;;;;;;;;;;10457761;28;20047;-74
2023/06/25 05:09:26;;;;;;;8.73;3.60;;;;;;;;;;10455829;28;20075;-74
2023/06/25 05:14:29;;;;;;;6.40;3.22;;;;;;;;;;10464061;28;20120;-74
2023/06/25 05:19:31;;;;;;;4.68;3.08;;;;;;;;;;10467194;28;20642;-75
2023/06/25 05:24:35;;;;;;;7.82;3.95;;;;;;;;;;10470502;28;20124;-75
2023/06/25 05:29:38;;;;;;;6.80;3.50;;;;;;;;;;10469262;28;20037;-75
2023/06/25 05:34:40;;;;;;;8.40;3.85;;;;;;;;;;10475284;28;20049;-75
2023/06/25 05:39:44;;;;;;;4.80;2.40;;;;;;;;;;10470741;28;20064;-75
2023/06/25 05:44:47;;;;;;;6.57;3.35;;;;;;;;;;10469948;28;20120;-75
2023/06/25 05:49:50;;;;;;;6.77;3.50;;;;;;;;;;10467800;28;20116;-75
2023/06/25 05:54:54;;;;;;;5.67;3.00;;;;;;;;;;10467539;28;20060;-75
2023/06/25 05:59:56;;;;;;;6.95;3.40;;;;;;;;;;10465589;28;20323;-75
2023/06/25 06:04:59;;;;;;;3.50;1.98;;;;;;;;;;10465337;28;20120;-74
2023/06/25 06:10:03;;;;;;;6.30;3.23;;;;;;;;;;10458667;28;20108;-74
2023/06/25 06:15:06;;;;;;;6.63;3.25;;;;;;;;;;10458627;28;20064;-75
2023/06/25 06:20:09;;;;;;;7.25;3.53;;;;;;;;;;10455673;28;20091;-76
2023/06/25 06:25:13;;;;;;;5.28;3.17;;;;;;;;;;10460346;28;20049;-73
2023/06/25 06:30:16;;;;;;;5.38;2.80;;;;;;;;;;10463756;28;20147;-74
2023/06/25 06:35:18;;;;;;;7.23;3.13;;;;;;;;;;10464465;28;20207;-75
2023/06/25 06:40:23;;;;;;;5.47;3.05;;;;;;;;;;10468558;28;20059;-75
2023/06/25 06:45:25;;;;;;;5.28;3.03;;;;;;;;;;10466690;28;20048;-75
2023/06/25 06:50:28;;;;;;;5.30;2.67;;;;;;;;;;10462031;28;20064;-75
2023/06/25 06:55:32;;;;;;;4.97;2.40;;;;;;;;;;10465623;28;20040;-75
2023/06/25 07:00:34;;;;;;;10.32;3.03;;;;;;;;;;10476099;28;20048;-75
2023/06/25 07:05:42;;;;;;;5.97;3.40;;;;;;;;;;10472430;28;20037;-74
2023/06/25 07:10:46;;;;;;;5.80;2.70;;;;;;;;;;10472338;28;20362;-75
2023/06/25 07:15:49;;;;;;;5.45;2.13;;;;;;;;;;10473737;28;20067;-75
2023/06/25 07:20:52;;;;;;;6.30;3.37;;;;;;;;;;10470511;28;20037;-73
2023/06/25 07:25:56;;;;;;;9.70;3.72;;;;;;;;;;10471242;28;20071;-76
2023/06/25 07:30:58;;;;;;;6.22;2.75;;;;;;;;;;10469342;28;20467;-75
2023/06/25 07:36:01;;;;;;;7.10;3.53;;;;;;;;;;10469928;28;20045;-76
2023/06/25 07:41:05;;;;;;;4.70;2.92;;;;;;;;;;10464315;28;20033;-74
2023/06/25 07:46:09;;;;;;;7.30;3.45;;;;;;;;;;10472227;28;20474;-74
2023/06/25 07:51:12;;;;;;;7.70;3.35;;;;;;;;;;10468183;28;20045;-75
2023/06/25 07:56:16;;;;;;;5.47;3.28;;;;;;;;;;10467827;28;20072;-74
2023/06/25 08:01:19;;;;;;;5.78;3.35;;;;;;;;;;10472654;28;20072;-74
2023/06/25 08:06:21;;;;;;;5.90;3.50;;;;;;;;;;10474336;28;20072;-75
2023/06/25 08:11:25;;;;;;;5.97;3.50;;;;;;;;;;10477667;28;20051;-74
2023/06/25 08:16:28;;;;;;;5.53;3.58;;;;;;;;;;10469409;28;20051;-74
2023/06/25 08:21:31;;;;;;;5.70;3.58;;;;;;;;;;10465366;28;21955;-75
2023/06/25 08:26:35;;;;;;;5.28;3.72;;;;;;;;;;10479491;28;20044;-75
2023/06/25 08:31:38;;;;;;;8.00;4.07;;;;;;;;;;10466936;28;20091;-75
2023/06/25 08:36:41;;;;;;;4.85;3.63;;;;;;;;;;10468711;28;20501;-76
2023/06/25 08:41:45;;;;;;;6.32;3.70;;;;;;;;;;10466302;28;20051;-77
2023/06/25 08:46:49;;;;;;;5.18;4.00;;;;;;;;;;10467238;28;20059;-74
2023/06/25 08:51:53;;;;;;;5.13;3.90;;;;;;;;;;10465440;28;20413;-74
2023/06/25 08:56:59;;;;;;;5.10;3.78;;;;;;;;;;10465497;28;20036;-74
2023/06/25 09:02:02;;;;;;;5.30;3.97;;;;;;;;;;10468398;28;20040;-76
2023/06/25 09:07:08;;;;;;;4.05;3.55;;;;;;;;;;10466644;28;20071;-74
2023/06/25 09:12:12;;;;;;;5.30;4.45;;;;;;;;;;10464165;28;20136;-75
2023/06/25 09:17:20;;;;;;;4.15;3.30;;;;;;;;;;10463600;28;20064;-75
2023/06/25 09:22:23;;;;;;;5.85;4.10;;;;;;;;;;10468936;28;20041;-75
2023/06/25 09:27:27;;;;;;;4.22;3.13;;;;;;;;;;10468799;28;20048;-76
2023/06/25 09:32:29;;;;;;;5.90;4.30;;;;;;;;;;10459814;28;20114;-74
2023/06/25 09:37:36;;;;;;;6.72;4.70;;;;;;;;;;10459049;28;20041;-74
2023/06/25 09:42:40;;;;;;;6.30;5.15;;;;;;;;;;10462006;28;20051;-74
2023/06/25 09:47:43;;;;;;;5.43;4.78;;;;;;;;;;10462782;28;20127;-76
2023/06/25 09:52:48;;;;;;;6.50;4.72;;;;;;;;;;10462019;28;20056;-76
2023/06/25 09:57:54;;;;;;;5.43;4.90;;;;;;;;;;10466369;28;20048;-76
2023/06/25 10:02:56;;;;;;;5.47;4.57;;;;;;;;;;10463789;28;20051;-76
2023/06/25 10:08:00;;;;;;;6.07;4.97;;;;;;;;;;10472702;28;20044;-75
2023/06/25 10:13:04;;;;;;;6.30;5.30;;;;;;;;;;10458306;28;20036;-76
2023/06/25 10:18:07;;;;;;;5.15;4.65;;;;;;;;;;10461223;28;20044;-76
2023/06/25 10:23:11;;;;;;;6.35;4.85;;;;;;;;;;10465343;28;20429;-74
2023/06/25 10:28:15;;;;;;;5.57;5.03;;;;;;;;;;10472444;28;20369;-75
2023/06/25 10:33:18;;;;;;;5.32;4.72;;;;;;;;;;10477575;28;20061;-76
2023/06/25 10:38:20;;;;;;;6.18;5.43;;;;;;;;;;10474963;28;20079;-76
2023/06/25 10:43:25;;;;;;;6.10;5.30;;;;;;;;;;10473511;28;20160;-75
2023/06/25 10:48:28;;;;;;;5.80;5.20;;;;;;;;;;10470106;28;20057;-75
2023/06/25 10:53:30;;;;;;;5.70;5.10;;;;;;;;;;10471732;28;21752;-74
2023/06/25 10:58:34;;;;;;;7.10;5.50;;;;;;;;;;10467624;28;20068;-75
2023/06/25 11:03:38;;;;;;;6.82;5.20;;;;;;;;;;10464453;28;20049;-76
2023/06/25 11:08:41;;;;;;;6.72;5.72;;;;;;;;;;10474941;28;20043;-75
2023/06/25 11:13:48;;;;;;;6.50;5.80;;;;;;;;;;10476303;28;20037;-75
2023/06/25 11:18:51;;;;;;;7.28;5.63;;;;;;;;;;10466324;28;20049;-75
2023/06/25 11:23:53;;;;;;;6.25;5.25;;;;;;;;;;10476137;28;20032;-76
2023/06/25 11:29:05;;;;;;;7.20;5.97;;;;;;;;;;10477314;28;20481;-75
2023/06/25 11:34:10;;;;;;;6.43;5.43;;;;;;;;;;10474602;28;20051;-75
2023/06/25 11:39:13;;;;;;;7.35;6.05;;;;;;;;;;10469544;28;20442;-75
2023/06/25 11:44:18;;;;;;;7.13;6.10;;;;;;;;;;10469661;28;20045;-75
2023/06/25 11:49:24;;;;;;;6.63;5.82;;;;;;;;;;10460408;28;20046;-75
2023/06/25 11:54:26;;;;;;;7.40;5.72;;;;;;;;;;10465818;28;20065;-75
2023/06/25 11:59:32;;;;;;;8.85;7.07;;;;;;;;;;10459811;28;20036;-75
2023/06/25 12:04:34;;;;;;;7.72;5.35;;;;;;;;;;10461172;28;20768;-75
2023/06/25 12:09:37;;;;;;;7.07;5.82;;;;;;;;;;10454601;28;20052;-74
2023/06/25 12:14:41;;;;;;;8.25;5.97;;;;;;;;;;10463572;28;20053;-74
2023/06/25 12:19:44;;;;;;;7.30;5.68;;;;;;;;;;10466412;28;20168;-74
2023/06/25 12:24:46;;;;;;;7.13;5.32;;;;;;;;;;10465612;28;20041;-74
2023/06/25 12:29:50;;;;;;;8.52;6.05;;;;;;;;;;10472869;28;20043;-75
2023/06/25 12:34:53;;;;;;;8.20;6.15;;;;;;;;;;10467618;28;20120;-74
2023/06/25 12:39:55;;;;;;;8.65;5.90;;;;;;;;;;10458390;28;20071;-76
2023/06/25 12:44:59;;;;;;;7.95;5.32;;;;;;;;;;10468522;28;20077;-74
2023/06/25 12:50:02;;;;;;;7.50;5.10;;;;;;;;;;10464417;28;20087;-75
2023/06/25 12:55:05;;;;;;;7.85;5.60;;;;;;;;;;10465254;28;20574;-76
2023/06/25 13:00:10;;;;;;;10.55;5.65;;;;;;;;;;10472228;28;20033;-75
2023/06/25 13:05:25;;;;;;;8.73;6.35;;;;;;;;;;10462032;28;20053;-75
2023/06/25 13:10:28;;;;;;;9.25;5.78;;;;;;;;;;10467525;28;20105;-76
2023/06/25 13:15:32;;;;;;;9.18;5.68;;;;;;;;;;10469142;28;20203;-76
2023/06/25 13:20:35;;;;;;;9.82;5.65;;;;;;;;;;10465648;28;20106;-76
2023/06/25 13:25:38;;;;;;;7.85;5.55;;;;;;;;;;10464963;28;20136;-77
2023/06/25 13:30:45;;;;;;;8.95;5.47;;;;;;;;;;10456790;28;20148;-76
2023/06/25 13:35:47;;;;;;;7.88;4.90;;;;;;;;;;10461028;28;20128;-75
2023/06/25 13:40:50;;;;;;;12.65;5.90;;;;;;;;;;10468819;28;20089;-76
2023/06/25 13:45:54;;;;;;;9.35;5.45;;;;;;;;;;10463921;28;20044;-76
2023/06/25 13:50:59;;;;;;;8.13;5.35;;;;;;;;;;10460210;28;20055;-76
2023/06/25 13:56:03;;;;;;;8.10;5.30;;;;;;;;;;10464383;28;20120;-77
2023/06/25 14:01:07;;;;;;;9.43;5.22;;;;;;;;;;10458304;28;20075;-76
2023/06/25 14:06:09;;;;;;;9.45;5.50;;;;;;;;;;10464854;28;20056;-77
2023/06/25 14:11:12;;;;;;;11.32;6.18;;;;;;;;;;10465262;28;20092;-76
2023/06/25 14:16:16;;;;;;;16.15;10.45;;;;;;;;;;10468504;28;20041;-75
2023/06/25 14:21:18;;;;;;;9.00;4.50;;;;;;;;;;10457093;28;20116;-76
2023/06/25 14:26:22;;;;;;;9.15;5.32;;;;;;;;;;10461609;28;20136;-77
2023/06/25 14:31:26;;;;;;;9.60;5.15;;;;;;;;;;10462983;28;20403;-75
2023/06/25 14:36:28;;;;;;;10.63;5.40;;;;;;;;;;10459581;28;20049;-76
2023/06/25 14:41:31;;;;;;;7.63;4.97;;;;;;;;;;10455944;28;20193;-77
2023/06/25 14:46:35;;;;;;;8.55;4.97;;;;;;;;;;10466925;28;20041;-76
2023/06/25 14:51:38;;;;;;;8.55;5.32;;;;;;;;;;10463178;28;20045;-76
2023/06/25 14:56:40;;;;;;;7.93;4.93;;;;;;;;;;10461853;28;20131;-74
2023/06/25 15:01:44;;;;;;;8.32;5.05;;;;;;;;;;10461894;28;20065;-75
2023/06/25 15:06:47;;;;;;;8.60;4.28;;;;;;;;;;10468468;28;20132;-75
2023/06/25 15:11:50;;;;;;;7.78;4.40;;;;;;;;;;10462508;28;20037;-75
2023/06/25 15:16:54;;;;;;;7.50;4.40;;;;;;;;;;10499219;22;21945;-75
2023/06/25 15:21:57;;;;;;;8.35;4.50;;;;;;;;;;10348176;28;20412;-78
2023/06/25 15:27:01;;;;;;;7.72;4.53;;;;;;;;;;10352679;28;20068;-77
2023/06/25 15:32:06;;;;;;;7.72;4.22;;;;;;;;;;10356341;28;20492;-78
2023/06/25 15:37:09;;;;;;;8.75;4.70;;;;;;;;;;10348223;28;20125;-76
2023/06/25 15:42:11;;;;;;;8.35;4.55;;;;;;;;;;10334452;28;20261;-77
2023/06/25 15:47:16;;;;;;;9.23;4.60;;;;;;;;;;10354035;28;20046;-78
2023/06/25 15:52:19;;;;;;;8.20;4.55;;;;;;;;;;10361341;28;20049;-77
2023/06/25 15:57:23;;;;;;;7.45;4.43;;;;;;;;;;10359386;28;20053;-76
2023/06/25 16:02:27;;;;;;;7.47;4.38;;;;;;;;;;10340374;28;20090;-77
2023/06/25 16:07:30;;;;;;;9.35;4.70;;;;;;;;;;10353280;28;20068;-77
2023/06/25 16:12:33;;;;;;;8.55;4.32;;;;;;;;;;10355084;28;20095;-77
2023/06/25 16:17:37;;;;;;;7.90;4.22;;;;;;;;;;10351383;28;20050;-76
2023/06/25 16:22:40;;;;;;;8.00;4.30;;;;;;;;;;10353725;28;20132;-77
2023/06/25 16:27:43;;;;;;;8.38;4.53;;;;;;;;;;10330714;28;20507;-77
2023/06/25 16:32:48;;;;;;;10.85;4.65;;;;;;;;;;10333072;28;20448;-77
2023/06/25 16:37:50;;;;;;;8.48;4.30;;;;;;;;;;10353019;28;20459;-77
2023/06/25 16:42:53;;;;;;;6.95;4.13;;;;;;;;;;10353274;28;20041;-77
2023/06/25 16:47:57;;;;;;;7.40;3.92;;;;;;;;;;10352019;28;20148;-77
2023/06/25 16:53:00;;;;;;;7.32;4.13;;;;;;;;;;10356509;28;20499;-77
2023/06/25 16:58:03;;;;;;;7.65;3.72;;;;;;;;;;10351822;28;20046;-77
2023/06/25 17:03:08;;;;;;;6.82;3.88;;;;;;;;;;10353979;28;20049;-74
2023/06/25 17:08:10;;;;;;;6.97;3.88;;;;;;;;;;10347277;28;20061;-77
2023/06/25 17:13:13;;;;;;;9.32;4.38;;;;;;;;;;10344545;28;20133;-78
2023/06/25 17:18:18;;;;;;;7.80;4.13;;;;;;;;;;10346124;28;20101;-77
2023/06/25 17:23:20;;;;;;;7.90;4.30;;;;;;;;;;10347924;28;20459;-78
2023/06/25 17:28:23;;;;;;;7.82;4.10;;;;;;;;;;10348189;28;20050;-77
2023/06/25 17:33:26;;;;;;;;;;;;;;;;;;10354496;28;20068;-77
2023/06/25 17:38:30;;;;;;;11.80;3.92;;;;;;;;;;10348355;28;19941;-77
2023/06/25 17:43:32;;;;;;;7.13;3.80;;;;;;;;;;10346565;28;20056;-77
2023/06/25 17:48:35;;;;;;;;;;;;;;;;;;10348488;28;20046;-77
2023/06/25 17:53:39;;;;;;;9.70;3.70;;;;;;;;;;10346834;28;20024;-77
2023/06/25 17:58:42;;;;;;;8.52;4.15;;;;;;;;;;10350331;28;20424;-78
2023/06/25 18:03:46;;;;;;;8.25;3.83;;;;;;;;;;10341818;28;20060;-77
2023/06/25 18:08:50;;;;;;;7.50;3.92;;;;;;;;;;10345659;28;20041;-76
2023/06/25 18:13:54;;;;;;;7.60;3.97;;;;;;;;;;10345015;28;20050;-77
2023/06/25 18:18:57;;;;;;;8.93;3.55;;;;;;;;;;10348319;28;20171;-76
2023/06/25 18:24:00;;;;;;;;;;;;;;;;;;10359518;28;20046;-78
2023/06/25 18:29:04;;;;;;;10.45;4.07;;;;;;;;;;10346655;28;19921;-76
2023/06/25 18:34:09;;;;;;;9.10;4.28;;;;;;;;;;10359717;28;20508;-82
2023/06/25 18:39:13;;;;;;;9.20;4.43;;;;;;;;;;10359915;28;20669;-79
2023/06/25 18:44:17;;;;;;;7.45;4.07;;;;;;;;;;10353083;28;20049;-79
2023/06/25 18:49:21;;;;;;;8.35;4.10;;;;;;;;;;10354480;28;20065;-79
2023/06/25 18:54:26;;;;;;;8.13;4.32;;;;;;;;;;10355771;28;20053;-79
2023/06/25 18:59:31;;;;;;;10.40;4.28;;;;;;;;;;10334972;28;20046;-79
2023/06/25 19:04:34;;;;;;;6.65;3.72;;;;;;;;;;10355937;28;20085;-79
2023/06/25 19:09:37;;;;;;;7.32;3.50;;;;;;;;;;10358393;28;20038;-79
2023/06/25 19:14:42;;;;;;;8.98;4.32;;;;;;;;;;10354789;28;20033;-78
2023/06/25 19:19:45;;;;;;;9.45;4.88;;;;;;;;;;10360730;28;20100;-79
2023/06/25 19:24:49;;;;;;;;;;;;;;;;;;10354325;28;20096;-79
2023/06/25 19:29:52;;;;;;;;;;;;;;;;;;10350839;28;19925;-79
2023/06/25 19:34:56;;;;;;;10.75;5.38;;;;;;;;;;10356099;28;20300;-80
2023/06/25 19:40:03;;;;;;;8.13;4.70;;;;;;;;;;10359942;28;20061;-79
2023/06/25 19:45:06;;;;;;;10.68;4.90;;;;;;;;;;10355874;28;20056;-79
2023/06/25 19:50:11;;;;;;;9.80;5.00;;;;;;;;;;10360380;28;20073;-79
2023/06/25 19:55:14;;;;;;;9.18;4.50;;;;;;;;;;10356885;28;20073;-78
2023/06/25 20:00:20;;;;;;;11.07;5.13;;;;;;;;;;10359314;28;20125;-78
2023/06/25 20:05:25;;;;;;;8.02;4.53;;;;;;;;;;10370471;28;20395;-79
2023/06/25 20:10:27;;;;;;;13.45;5.93;;;;;;;;;;10367886;28;20085;-80
2023/06/25 20:15:30;;;;;;;12.45;6.15;;;;;;;;;;10343039;28;20298;-80
2023/06/25 20:20:36;;;;;;;15.02;6.57;;;;;;;;;;10359997;28;20042;-79
2023/06/25 20:25:40;;;;;;;15.88;7.57;;;;;;;;;;10360133;28;20411;-79
2023/06/25 20:30:43;;;;;;;14.27;7.03;;;;;;;;;;10354942;28;20450;-79
2023/06/25 20:35:49;;;;;;;11.18;5.40;;;;;;;;;;10360223;28;20111;-79
2023/06/25 20:40:52;;;;;;;11.00;5.65;;;;;;;;;;10357735;28;20038;-78
2023/06/25 20:46:01;;;;;;;16.60;7.28;;;;;;;;;;10356844;28;20464;-79
2023/06/25 20:51:05;;;;;;;13.23;6.70;;;;;;;;;;10355207;28;20065;-78
2023/06/25 20:56:08;;;;;;;11.05;5.65;;;;;;;;;;10369866;28;20480;-77
2023/06/25 21:01:11;;;;;;;17.63;8.60;;;;;;;;;;10358079;28;20503;-78
2023/06/25 21:06:16;;;;;;;17.95;8.50;;;;;;;;;;10359798;28;20046;-79
2023/06/25 21:11:19;;;;;;;16.48;6.10;;;;;;;;;;10361295;28;20125;-86
2023/06/25 21:16:23;;;;;;;11.57;5.50;;;;;;;;;;10359335;28;20137;-85
2023/06/25 21:21:28;;;;;;;10.38;5.30;;;;;;;;;;10342508;28;20034;-85
2023/06/25 21:26:31;;;;;;;10.55;5.00;;;;;;;;;;10354491;28;20504;-83
2023/06/25 21:31:34;;;;;;;11.15;4.93;;;;;;;;;;10352300;28;20133;-84
2023/06/25 21:36:39;;;;;;;12.32;5.07;;;;;;;;;;10355197;28;20042;-84
2023/06/25 21:41:41;;;;;;;11.60;5.32;;;;;;;;;;10360719;28;20509;-84
2023/06/25 21:46:45;;;;;;;9.30;4.35;;;;;;;;;;10364320;28;20080;-84
2023/06/25 21:51:50;;;;;;;9.88;5.07;;;;;;;;;;10353164;28;20088;-84
2023/06/25 21:56:53;;;;;;;12.80;5.30;;;;;;;;;;10353646;28;20113;-85
2023/06/25 22:01:55;;;;;;;10.38;4.35;;;;;;;;;;10357323;28;20129;-84
2023/06/25 22:07:00;;;;;;;9.50;4.90;;;;;;;;;;10360110;28;20042;-84
2023/06/25 22:12:03;;;;;;;9.60;4.55;;;;;;;;;;10349241;28;20133;-84
2023/06/25 22:17:06;;;;;;;10.77;4.88;;;;;;;;;;10347703;28;20460;-84
2023/06/25 22:22:10;;;;;;;9.00;4.78;;;;;;;;;;10356043;28;20112;-85
2023/06/25 22:27:13;;;;;;;11.43;4.95;;;;;;;;;;10357303;28;20046;-84
2023/06/25 22:32:15;;;;;;;9.00;4.27;;;;;;;;;;10359603;28;20038;-84
2023/06/25 22:37:18;;;;;;;;;;;;;;;;;;10358108;28;20857;-84
2023/06/25 22:42:22;;;;;;;11.18;5.28;;;;;;;;;;10354816;28;20305;-84
2023/06/25 22:47:25;;;;;;;11.50;4.80;;;;;;;;;;10356533;28;20050;-83
2023/06/25 22:52:28;;;;;;;10.27;5.10;;;;;;;;;;10365678;28;20038;-82
2023/06/25 22:57:33;;;;;;;11.75;5.47;;;;;;;;;;10350706;28;20473;-82
2023/06/25 23:02:36;;;;;;;11.10;4.70;;;;;;;;;;10352592;28;20097;-82
2023/06/25 23:07:42;;;;;;;10.60;4.93;;;;;;;;;;10349460;28;20524;-83
2023/06/25 23:12:46;;;;;;;9.50;4.63;;;;;;;;;;10356935;28;20037;-83
2023/06/25 23:17:50;;;;;;;12.82;4.82;;;;;;;;;;10357426;28;20197;-82
2023/06/25 23:22:53;;;;;;;11.75;4.95;;;;;;;;;;10353344;28;20114;-81
2023/06/25 23:27:58;;;;;;;8.77;4.60;;;;;;;;;;10361392;28;20038;-82
2023/06/25 23:33:02;;;;;;;10.88;4.95;;;;;;;;;;10354240;28;20038;-82
2023/06/25 23:38:06;;;;;;;10.93;5.38;;;;;;;;;;10365065;28;20041;-82
2023/06/25 23:43:09;;;;;;;9.77;5.05;;;;;;;;;;10365272;28;20168;-84
2023/06/25 23:48:12;;;;;;;10.23;4.80;;;;;;;;;;10364335;28;20045;-83
2023/06/25 23:53:16;;;;;;;10.00;5.15;;;;;;;;;;10355239;28;20125;-83
2023/06/25 23:58:20;;;;;;;8.52;4.72;;;;;;;;;;10352573;28;20041;-83
